createdAt,value
2023-03-23T15:58:52.144Z,57.90
2023-03-23T16:01:25.097Z,59.03
2023-03-23T16:04:05.156Z,58.35
2023-03-23T16:06:33.945Z,59.15
2023-03-23T16:09:01.027Z,56.58
2023-03-23T16:11:31.222Z,57.41
2023-03-23T16:13:59.623Z,58.71
2023-03-23T16:16:49.699Z,57.46
2023-03-23T16:19:28.359Z,56.48
2023-03-23T16:21:55.302Z,56.69
2023-03-23T16:24:22.119Z,56.92
2023-03-23T16:26:49.172Z,57.52
2023-03-23T16:29:28.987Z,57.79
2023-03-23T16:32:00.934Z,57.14
2023-03-23T16:34:29.931Z,57.19
2023-03-23T16:36:56.400Z,57.18
2023-03-23T16:39:23.280Z,56.54
2023-03-23T16:41:50.276Z,55.12
2023-03-23T16:44:17.204Z,55.78
2023-03-23T16:46:43.812Z,56.96
2023-03-23T16:49:10.246Z,57.21
2023-03-23T16:51:36.724Z,56.88
2023-03-23T16:54:03.942Z,58.05
2023-03-23T16:56:30.758Z,57.56
2023-03-23T16:58:57.489Z,58.15
2023-03-23T17:01:25.596Z,59.46
2023-03-23T17:03:54.168Z,59.53
2023-03-23T17:06:21.073Z,59.23
2023-03-23T17:08:47.657Z,58.25
2023-03-23T17:11:14.187Z,58.95
2023-03-23T17:13:41.914Z,61.69
2023-03-23T17:16:09.009Z,61.25
2023-03-23T17:18:36.742Z,60.20
2023-03-23T17:21:03.913Z,61.66
2023-03-23T17:23:30.680Z,61.96
2023-03-23T17:25:57.510Z,62.73
2023-03-23T17:28:24.562Z,60.46
2023-03-23T17:30:51.918Z,61.87
2023-03-23T17:33:21.616Z,62.30
2023-03-23T17:35:51.633Z,62.49
2023-03-23T17:38:18.634Z,64.01
2023-03-23T17:40:45.198Z,65.67
2023-03-23T17:43:11.817Z,64.60
2023-03-23T17:45:38.672Z,64.25
2023-03-23T17:48:07.718Z,64.91
2023-03-23T17:50:35.568Z,65.39
2023-03-23T17:53:02.830Z,63.88
2023-03-23T17:55:29.460Z,64.65
2023-03-23T17:57:56.372Z,64.25
2023-03-23T18:00:23.235Z,65.63
2023-03-23T18:02:50.946Z,65.56
2023-03-23T18:05:17.788Z,64.08
2023-03-23T18:07:44.549Z,63.94
2023-03-23T18:10:14.396Z,65.32
2023-03-23T18:12:41.883Z,64.19
2023-03-23T18:15:09.489Z,65.75
2023-03-23T18:17:36.165Z,65.18
2023-03-23T18:20:04.631Z,68.16
2023-03-23T18:22:31.782Z,67.39
2023-03-23T18:24:58.401Z,67.45
2023-03-23T18:27:26.104Z,67.88
2023-03-23T18:29:52.555Z,68.91
2023-03-23T18:32:19.764Z,65.62
2023-03-23T18:34:46.850Z,67.57
2023-03-23T18:37:13.659Z,68.80
2023-03-23T18:39:40.192Z,67.96
2023-03-23T18:42:07.096Z,67.52
2023-03-23T18:44:33.789Z,68.50
2023-03-23T18:47:00.504Z,69.10
2023-03-23T18:49:28.844Z,67.70
2023-03-23T18:51:55.506Z,67.83
2023-03-23T18:54:22.159Z,68.37
2023-03-23T18:56:48.724Z,67.59
2023-03-23T18:59:15.587Z,68.17
2023-03-23T19:01:42.257Z,67.92
2023-03-23T19:04:08.969Z,70.17
2023-03-23T19:06:36.050Z,68.83
2023-03-23T19:09:02.920Z,68.33
2023-03-23T19:11:29.680Z,68.11
2023-03-23T19:14:02.163Z,68.40
2023-03-23T19:16:32.269Z,69.87
2023-03-23T19:19:01.522Z,68.71
2023-03-23T19:21:29.785Z,69.37
2023-03-23T19:23:57.946Z,68.59
2023-03-23T19:26:33.930Z,68.33
2023-03-23T19:29:25.214Z,69.41
2023-03-23T19:31:52.166Z,69.33
2023-03-23T19:34:18.635Z,69.79
2023-03-23T19:36:53.781Z,69.26
2023-03-23T19:39:23.197Z,70.22
2023-03-23T19:41:50.945Z,70.51
2023-03-23T19:44:17.986Z,70.76
2023-03-23T19:46:45.099Z,71.08
2023-03-23T19:49:11.614Z,71.47
2023-03-23T19:51:38.549Z,70.82
2023-03-23T19:54:07.849Z,71.15
2023-03-23T19:56:35.057Z,71.89
2023-03-23T19:59:02.157Z,72.77
2023-03-23T20:01:28.869Z,73.17
2023-03-23T20:03:59.751Z,71.94
2023-03-23T20:06:29.108Z,74.05
2023-03-23T20:08:56.468Z,74.15
2023-03-23T20:11:23.011Z,72.76
2023-03-23T20:13:50.575Z,73.61
2023-03-23T20:16:18.264Z,73.42
2023-03-23T20:18:46.293Z,74.39
2023-03-23T20:21:15.458Z,73.14
2023-03-23T20:23:44.636Z,73.51
2023-03-23T20:26:14.833Z,73.79
2023-03-23T20:28:42.663Z,73.17
2023-03-23T20:31:23.083Z,72.71
2023-03-23T20:34:01.125Z,73.95
2023-03-23T20:36:35.698Z,73.78
2023-03-23T20:39:10.318Z,72.67
2023-03-23T20:41:38.827Z,73.98
2023-03-23T20:44:08.768Z,74.71
2023-03-23T20:46:35.600Z,74.42
2023-03-23T20:49:02.121Z,74.49
2023-03-23T20:51:28.655Z,73.44
2023-03-23T20:53:55.617Z,74.41
2023-03-23T20:56:22.368Z,74.36
2023-03-23T20:58:48.959Z,74.77
2023-03-23T21:01:16.553Z,73.98
2023-03-23T21:03:44.031Z,73.66
2023-03-23T21:06:10.763Z,74.52
2023-03-23T21:08:39.691Z,74.76
2023-03-23T21:11:08.936Z,72.66
2023-03-23T21:13:36.258Z,73.46
2023-03-23T21:16:04.237Z,73.87
2023-03-23T21:18:31.813Z,73.36
2023-03-23T21:21:00.253Z,73.35
2023-03-23T21:23:29.378Z,72.80
2023-03-23T21:26:01.672Z,72.33
2023-03-23T21:28:28.996Z,73.98
2023-03-23T21:31:03.239Z,73.34
2023-03-23T21:33:30.797Z,73.12
2023-03-23T21:35:57.477Z,71.81
2023-03-23T21:38:26.453Z,72.13
2023-03-23T21:40:54.697Z,72.78
2023-03-23T21:43:27.156Z,70.90
2023-03-23T21:45:58.808Z,69.78
2023-03-23T21:48:27.270Z,71.00
2023-03-23T21:50:54.197Z,71.93
2023-03-23T21:53:22.297Z,71.95
2023-03-23T21:55:53.221Z,71.20
2023-03-23T21:58:27.348Z,73.37
2023-03-23T22:00:55.304Z,71.68
2023-03-23T22:03:24.181Z,70.87
2023-03-23T22:05:54.450Z,70.90
2023-03-23T22:08:23.079Z,71.04
2023-03-23T22:11:01.248Z,70.91
2023-03-23T22:13:30.452Z,72.02
2023-03-23T22:15:58.615Z,72.06
2023-03-23T22:18:25.906Z,71.91
2023-03-23T22:20:52.722Z,73.41
2023-03-23T22:23:19.416Z,73.78
2023-03-23T22:25:46.302Z,74.03
2023-03-23T22:28:13.262Z,74.05
2023-03-23T22:30:39.907Z,73.68
2023-03-23T22:33:06.576Z,73.76
2023-03-23T22:35:33.736Z,73.67
2023-03-23T22:38:02.937Z,74.01
2023-03-23T22:40:31.508Z,73.29
2023-03-23T22:42:58.149Z,73.68
2023-03-23T22:45:26.319Z,74.02
2023-03-23T22:47:53.058Z,72.92
2023-03-23T22:50:21.383Z,72.90
2023-03-23T22:52:48.329Z,73.26
2023-03-23T22:55:15.279Z,74.32
2023-03-23T22:57:41.813Z,73.87
2023-03-23T23:00:14.405Z,73.82
2023-03-23T23:02:42.907Z,74.30
2023-03-23T23:05:10.410Z,74.13
2023-03-23T23:07:37.403Z,74.10
2023-03-23T23:10:05.550Z,74.87
2023-03-23T23:12:35.324Z,75.14
2023-03-23T23:15:04.532Z,75.72
2023-03-23T23:17:31.883Z,76.05
2023-03-23T23:19:59.500Z,75.55
2023-03-23T23:22:26.376Z,76.28
2023-03-23T23:24:53.087Z,76.17
2023-03-23T23:27:19.827Z,76.73
2023-03-23T23:29:46.406Z,76.15
2023-03-23T23:32:13.109Z,76.23
2023-03-23T23:34:40.262Z,76.50
2023-03-23T23:37:08.845Z,75.97
2023-03-23T23:39:38.650Z,75.50
2023-03-23T23:42:05.784Z,75.67
2023-03-23T23:44:32.421Z,75.97
2023-03-23T23:46:59.014Z,76.39
2023-03-23T23:49:28.495Z,76.17
2023-03-23T23:51:56.555Z,75.96
2023-03-23T23:54:29.778Z,76.23
2023-03-23T23:56:58.192Z,76.43
2023-03-23T23:59:26.132Z,77.30
